Dale, Indiana
Current Conditions -  °F | °C
As of 9:15 AM on Monday 24 Nov 2014 (Local Time) from KHNB Reporting Station
Overcast Overcast  
Wind Chill: 33°   Ceiling: 1900
Heat Index: 43°   Visibility: 10mi
Dew Point: 36°   Wind: 28mph
Humidity: 76%   Direction: 270°W
Pressure: 29.63"   Gusts: 37mph
Location:  38.17°N, 86.99°W
Report Text: KHNB 241515Z AUTO 27024G32KT 10SM BKN019 OVC034 06/02 A2963 RMK AO1
Loading
Personal Weather Stations






























Interactive Weather Map New forecast layout! Learn more

10-Day Weather Forecast

Advertisements
Track Severe Weather on mobile